Time;durP1;ratioP1;P1;durP2;ratioP2;P2;SDS_P1;SDS_P2;PMS_P1;PMS_P2;Temp;Humidity;BMP_temperature;BMP_pressure;BME280_temperature;BME280_humidity;BME280_pressure;Samples;Min_cycle;Max_cycle;Signal;HPM_P1;HPM_P2
2021/10/07 00:00:30;;;;;;;2.22;2.13;;;;;;;;;;2078999;28;20037;-65
2021/10/07 00:01:48;;;;;;;2.65;2.35;;;;;;;;;;2080115;28;20033;-65
2021/10/07 00:03:07;;;;;;;2.38;2.05;;;;;;;;;;2080392;28;20438;-66
2021/10/07 00:04:28;;;;;;;2.40;2.30;;;;;;;;;;2078240;28;20069;-66
2021/10/07 00:05:47;;;;;;;3.35;2.00;;;;;;;;;;2080622;28;20026;-66
2021/10/07 00:07:06;;;;;;;2.40;2.30;;;;;;;;;;2080129;28;20418;-66
2021/10/07 00:08:25;;;;;;;2.95;2.38;;;;;;;;;;2076776;28;20041;-66
2021/10/07 00:09:44;;;;;;;3.25;2.40;;;;;;;;;;2079710;28;20076;-66
2021/10/07 00:11:03;;;;;;;3.58;2.20;;;;;;;;;;2080865;28;20037;-66
2021/10/07 00:12:22;;;;;;;2.17;2.08;;;;;;;;;;2080956;28;20029;-66
2021/10/07 00:13:41;;;;;;;2.80;2.20;;;;;;;;;;2078713;28;20038;-65
2021/10/07 00:15:00;;;;;;;3.78;2.72;;;;;;;;;;2077160;28;20037;-66
2021/10/07 00:16:18;;;;;;;2.40;2.30;;;;;;;;;;2080676;28;20045;-66
2021/10/07 00:17:38;;;;;;;2.20;2.10;;;;;;;;;;2081719;28;20048;-66
2021/10/07 00:18:56;;;;;;;2.63;2.42;;;;;;;;;;2079999;28;20059;-66
2021/10/07 00:20:16;;;;;;;2.65;2.45;;;;;;;;;;2081229;28;20106;-66
2021/10/07 00:21:35;;;;;;;3.00;2.80;;;;;;;;;;2078558;28;20105;-66
2021/10/07 00:22:54;;;;;;;3.47;2.10;;;;;;;;;;2078890;28;20026;-66
2021/10/07 00:24:13;;;;;;;3.03;2.33;;;;;;;;;;2076716;28;20030;-65
2021/10/07 00:25:32;;;;;;;2.35;2.20;;;;;;;;;;2079421;28;20402;-66
2021/10/07 00:26:51;;;;;;;2.75;2.45;;;;;;;;;;2079603;28;20033;-66
2021/10/07 00:28:11;;;;;;;2.88;2.40;;;;;;;;;;2078971;28;20503;-65
2021/10/07 00:29:39;;;;;;;2.70;2.50;;;;;;;;;;2078794;28;20033;-65
2021/10/07 00:31:00;;;;;;;2.70;2.50;;;;;;;;;;2079422;28;20037;-65
2021/10/07 00:32:22;;;;;;;2.80;2.55;;;;;;;;;;2079770;28;20104;-64
2021/10/07 00:37:23;;;;;;;2.67;2.50;;;;;;;;;;2064963;28;20034;-66
2021/10/07 00:40:19;;;;;;;2.88;2.67;;;;;;;;;;2064050;28;20496;-65
2021/10/07 00:41:39;;;;;;;2.85;2.65;;;;;;;;;;2080827;28;20041;-66
2021/10/07 00:42:58;;;;;;;3.03;2.83;;;;;;;;;;2080730;28;20021;-65
2021/10/07 00:44:17;;;;;;;3.17;2.90;;;;;;;;;;2078297;28;20041;-66
2021/10/07 00:45:37;;;;;;;3.13;2.88;;;;;;;;;;2079495;28;20479;-65
2021/10/07 00:46:59;;;;;;;2.67;2.47;;;;;;;;;;2079991;28;20045;-67
2021/10/07 00:48:19;;;;;;;3.35;3.05;;;;;;;;;;2079634;28;20021;-66
2021/10/07 00:49:39;;;;;;;3.03;2.80;;;;;;;;;;2079394;28;20034;-66
2021/10/07 00:50:58;;;;;;;2.88;2.67;;;;;;;;;;2079987;28;20021;-66
2021/10/07 00:52:18;;;;;;;5.03;3.20;;;;;;;;;;2080936;28;20030;-66
2021/10/07 00:53:37;;;;;;;4.07;2.60;;;;;;;;;;2080550;28;20045;-67
2021/10/07 00:54:56;;;;;;;4.25;2.53;;;;;;;;;;2079766;28;20029;-66
2021/10/07 00:56:19;;;;;;;3.25;2.97;;;;;;;;;;2079956;28;20029;-66
2021/10/07 00:57:39;;;;;;;3.97;2.92;;;;;;;;;;2079460;28;20045;-67
2021/10/07 00:58:58;;;;;;;3.33;2.85;;;;;;;;;;2077803;28;20049;-66
2021/10/07 01:00:17;;;;;;;2.80;2.60;;;;;;;;;;2080526;28;20029;-66
2021/10/07 01:01:35;;;;;;;3.03;2.83;;;;;;;;;;2080030;28;20025;-66
2021/10/07 01:02:54;;;;;;;3.50;3.25;;;;;;;;;;2079976;28;20025;-66
2021/10/07 01:04:14;;;;;;;2.80;2.60;;;;;;;;;;2080138;28;20487;-66
2021/10/07 01:05:32;;;;;;;2.78;2.58;;;;;;;;;;2079710;28;20030;-66
2021/10/07 01:06:51;;;;;;;2.90;2.63;;;;;;;;;;2078774;28;20026;-67
2021/10/07 01:08:10;;;;;;;4.10;3.35;;;;;;;;;;2077839;28;20100;-65
2021/10/07 01:09:30;;;;;;;6.13;3.33;;;;;;;;;;2079311;28;20022;-66
2021/10/07 01:10:49;;;;;;;2.78;2.67;;;;;;;;;;2079523;28;20037;-66
2021/10/07 01:12:08;;;;;;;3.47;3.17;;;;;;;;;;2078970;28;20022;-65
2021/10/07 01:13:27;;;;;;;3.28;3.08;;;;;;;;;;2079977;28;20026;-65
2021/10/07 01:14:48;;;;;;;3.17;2.88;;;;;;;;;;2078585;28;20037;-65
2021/10/07 01:16:10;;;;;;;3.17;3.00;;;;;;;;;;2081085;28;20041;-65
2021/10/07 01:17:32;;;;;;;3.17;2.97;;;;;;;;;;2080625;28;20053;-65
2021/10/07 01:18:51;;;;;;;3.97;3.10;;;;;;;;;;2079967;28;20029;-65
2021/10/07 01:20:12;;;;;;;3.50;3.30;;;;;;;;;;2079436;28;20029;-66
2021/10/07 01:21:31;;;;;;;3.53;3.22;;;;;;;;;;2079772;28;20021;-65
2021/10/07 01:22:50;;;;;;;3.65;3.28;;;;;;;;;;2079899;28;20029;-65
2021/10/07 01:24:08;;;;;;;3.50;3.30;;;;;;;;;;2078320;28;20037;-66
2021/10/07 01:25:31;;;;;;;3.03;2.83;;;;;;;;;;2085362;28;20017;-65
2021/10/07 01:26:50;;;;;;;3.38;3.10;;;;;;;;;;2079900;28;20092;-65
2021/10/07 01:28:08;;;;;;;3.38;3.17;;;;;;;;;;2079638;28;20467;-65
2021/10/07 01:29:27;;;;;;;3.50;3.28;;;;;;;;;;2080015;28;20033;-65
2021/10/07 01:30:46;;;;;;;4.40;3.25;;;;;;;;;;2084630;28;20026;-66
2021/10/07 01:32:06;;;;;;;3.90;3.42;;;;;;;;;;2081115;28;20483;-65
2021/10/07 01:33:24;;;;;;;3.08;2.88;;;;;;;;;;2077130;28;20383;-66
2021/10/07 01:34:43;;;;;;;3.53;3.00;;;;;;;;;;2079694;28;20387;-66
2021/10/07 01:36:02;;;;;;;3.00;2.80;;;;;;;;;;2078616;28;20479;-65
2021/10/07 01:37:22;;;;;;;3.90;3.17;;;;;;;;;;2078716;28;20033;-66
2021/10/07 01:38:40;;;;;;;4.05;3.30;;;;;;;;;;2079507;28;20054;-66
2021/10/07 01:40:00;;;;;;;3.45;3.10;;;;;;;;;;2079738;28;20514;-66
2021/10/07 01:41:18;;;;;;;5.78;3.47;;;;;;;;;;2078541;28;20533;-65
2021/10/07 01:42:38;;;;;;;3.75;3.10;;;;;;;;;;2077577;28;20021;-65
2021/10/07 01:43:57;;;;;;;4.97;3.03;;;;;;;;;;2079322;28;20479;-65
2021/10/07 01:45:16;;;;;;;3.88;3.65;;;;;;;;;;2078027;28;20037;-65
2021/10/07 01:46:35;;;;;;;3.85;3.13;;;;;;;;;;2079579;28;20022;-65
2021/10/07 01:47:54;;;;;;;3.10;2.90;;;;;;;;;;2080021;28;20025;-64
2021/10/07 01:49:13;;;;;;;3.63;3.05;;;;;;;;;;2077719;28;20033;-66
2021/10/07 01:50:33;;;;;;;3.25;2.83;;;;;;;;;;2079537;28;20029;-66
2021/10/07 01:51:52;;;;;;;3.20;3.00;;;;;;;;;;2080251;28;20037;-65
2021/10/07 01:53:11;;;;;;;3.08;2.85;;;;;;;;;;2080250;28;20479;-66
2021/10/07 01:54:30;;;;;;;3.15;2.78;;;;;;;;;;2077077;28;20037;-66
2021/10/07 01:55:49;;;;;;;3.38;3.08;;;;;;;;;;2078251;28;20514;-66
2021/10/07 01:57:08;;;;;;;3.65;3.20;;;;;;;;;;2079860;28;20041;-66
2021/10/07 01:58:27;;;;;;;3.90;3.40;;;;;;;;;;2079640;28;20662;-66
2021/10/07 01:59:46;;;;;;;3.53;3.22;;;;;;;;;;2079050;28;20437;-66
2021/10/07 02:01:05;;;;;;;3.55;3.20;;;;;;;;;;2077233;28;20037;-66
2021/10/07 02:02:24;;;;;;;3.75;3.33;;;;;;;;;;2079339;28;20022;-66
2021/10/07 02:03:43;;;;;;;3.20;2.90;;;;;;;;;;2079644;28;20465;-66
2021/10/07 02:05:02;;;;;;;2.85;2.65;;;;;;;;;;2080516;28;20398;-66
2021/10/07 02:06:21;;;;;;;4.13;3.15;;;;;;;;;;2079064;28;20034;-65
2021/10/07 02:07:40;;;;;;;4.22;3.03;;;;;;;;;;2080110;28;20037;-66
2021/10/07 02:08:59;;;;;;;3.72;3.42;;;;;;;;;;2079541;28;20022;-65
2021/10/07 02:10:18;;;;;;;4.35;3.95;;;;;;;;;;2077497;28;20116;-64
2021/10/07 02:11:37;;;;;;;4.05;3.20;;;;;;;;;;2077443;28;20026;-65
2021/10/07 02:12:56;;;;;;;4.88;3.45;;;;;;;;;;2077532;28;20033;-65
2021/10/07 02:14:15;;;;;;;4.03;2.88;;;;;;;;;;2079103;28;20033;-66
2021/10/07 02:15:34;;;;;;;2.95;2.75;;;;;;;;;;2079087;28;20442;-65
2021/10/07 02:16:53;;;;;;;3.28;2.97;;;;;;;;;;2080394;28;20464;-66
2021/10/07 02:18:11;;;;;;;6.15;3.30;;;;;;;;;;2078391;28;20034;-65
2021/10/07 02:19:30;;;;;;;2.95;2.75;;;;;;;;;;2078635;28;20029;-65
2021/10/07 02:20:49;;;;;;;3.50;3.20;;;;;;;;;;2078984;28;20033;-66
2021/10/07 02:22:08;;;;;;;3.80;3.03;;;;;;;;;;2079096;28;20972;-66
2021/10/07 02:23:27;;;;;;;3.03;2.83;;;;;;;;;;2079288;28;20395;-67
2021/10/07 02:24:46;;;;;;;4.80;3.15;;;;;;;;;;2079965;28;20026;-66
2021/10/07 02:26:05;;;;;;;2.70;2.50;;;;;;;;;;2081414;28;20084;-65
2021/10/07 02:27:24;;;;;;;3.58;2.90;;;;;;;;;;2088847;28;20045;-64
2021/10/07 02:28:43;;;;;;;3.33;3.03;;;;;;;;;;2083692;28;20033;-65
2021/10/07 02:30:05;;;;;;;3.25;3.05;;;;;;;;;;2073746;28;20527;-64
2021/10/07 02:31:24;;;;;;;3.05;2.83;;;;;;;;;;2078976;28;20053;-66
2021/10/07 02:32:43;;;;;;;3.17;2.92;;;;;;;;;;2081293;28;20053;-66
2021/10/07 02:34:02;;;;;;;3.13;2.90;;;;;;;;;;2079950;28;20479;-65
2021/10/07 02:35:21;;;;;;;3.97;2.90;;;;;;;;;;2081479;28;20034;-65
2021/10/07 02:36:40;;;;;;;3.75;3.22;;;;;;;;;;2079618;28;20037;-65
2021/10/07 02:37:59;;;;;;;2.97;2.75;;;;;;;;;;2080164;28;20029;-65
2021/10/07 02:39:18;;;;;;;7.45;3.28;;;;;;;;;;2080325;28;20033;-64
2021/10/07 02:40:37;;;;;;;3.22;3.03;;;;;;;;;;2080815;28;20022;-64
2021/10/07 02:41:55;;;;;;;3.17;2.97;;;;;;;;;;2076633;28;20487;-63
2021/10/07 02:43:14;;;;;;;3.03;2.75;;;;;;;;;;2080132;28;20073;-64
2021/10/07 02:44:34;;;;;;;3.30;3.10;;;;;;;;;;2078833;28;20427;-66
2021/10/07 02:45:52;;;;;;;3.00;2.80;;;;;;;;;;2080853;28;20029;-66
2021/10/07 02:47:11;;;;;;;4.93;3.00;;;;;;;;;;2081101;28;20025;-65
2021/10/07 02:48:30;;;;;;;3.13;2.83;;;;;;;;;;2080147;28;20029;-65
2021/10/07 02:49:49;;;;;;;2.97;2.80;;;;;;;;;;2079444;28;20041;-64
2021/10/07 02:51:08;;;;;;;3.40;3.08;;;;;;;;;;2078722;28;20034;-65
2021/10/07 02:52:27;;;;;;;4.95;2.97;;;;;;;;;;2088374;28;20054;-64
2021/10/07 02:53:46;;;;;;;4.47;3.20;;;;;;;;;;2085047;28;20042;-65
2021/10/07 02:55:05;;;;;;;5.00;3.05;;;;;;;;;;2080967;28;20444;-64
2021/10/07 02:56:24;;;;;;;2.85;2.65;;;;;;;;;;2080360;28;20033;-66
2021/10/07 02:57:45;;;;;;;3.50;3.08;;;;;;;;;;2080416;28;20045;-64
2021/10/07 02:59:04;;;;;;;3.75;3.33;;;;;;;;;;2080336;28;20033;-66
2021/10/07 03:00:23;;;;;;;3.45;2.90;;;;;;;;;;2078924;28;20060;-64
2021/10/07 03:01:42;;;;;;;5.20;3.17;;;;;;;;;;2080255;28;20029;-65
2021/10/07 03:03:01;;;;;;;3.17;2.97;;;;;;;;;;2079374;28;20446;-66
2021/10/07 03:04:19;;;;;;;3.08;2.88;;;;;;;;;;2080141;28;20108;-65
2021/10/07 03:05:38;;;;;;;3.33;3.00;;;;;;;;;;2079427;28;20022;-65
2021/10/07 03:06:57;;;;;;;2.83;2.50;;;;;;;;;;2077846;28;20034;-65
2021/10/07 03:08:16;;;;;;;3.45;3.00;;;;;;;;;;2077077;28;20037;-63
2021/10/07 03:09:36;;;;;;;3.33;3.03;;;;;;;;;;2077759;28;20502;-66
2021/10/07 03:10:56;;;;;;;3.40;3.20;;;;;;;;;;2079633;28;20069;-65
2021/10/07 03:12:15;;;;;;;2.92;2.72;;;;;;;;;;2079195;28;20041;-65
2021/10/07 03:13:34;;;;;;;4.13;3.08;;;;;;;;;;2077416;28;20716;-65
2021/10/07 03:14:53;;;;;;;3.70;3.50;;;;;;;;;;2077537;28;20026;-65
2021/10/07 03:16:12;;;;;;;2.78;2.67;;;;;;;;;;2080698;28;20507;-66
2021/10/07 03:17:31;;;;;;;4.13;3.00;;;;;;;;;;2079768;28;20467;-66
2021/10/07 03:18:49;;;;;;;3.33;3.08;;;;;;;;;;2079521;28;20499;-66
2021/10/07 03:20:08;;;;;;;4.20;2.90;;;;;;;;;;2079567;28;20025;-67
2021/10/07 03:21:27;;;;;;;4.32;2.90;;;;;;;;;;2078174;28;20033;-66
2021/10/07 03:22:46;;;;;;;2.88;2.70;;;;;;;;;;2081687;28;20108;-66
2021/10/07 03:24:05;;;;;;;4.50;3.28;;;;;;;;;;2079901;28;20026;-65
2021/10/07 03:25:24;;;;;;;3.22;3.00;;;;;;;;;;2078852;28;20065;-66
2021/10/07 03:26:43;;;;;;;4.05;3.55;;;;;;;;;;2081133;28;20034;-66
2021/10/07 03:28:02;;;;;;;4.93;3.65;;;;;;;;;;2082052;28;20493;-66
2021/10/07 03:29:21;;;;;;;2.97;2.78;;;;;;;;;;2080783;28;20044;-67
2021/10/07 03:30:40;;;;;;;4.03;3.67;;;;;;;;;;2080361;28;20156;-66
2021/10/07 03:31:59;;;;;;;3.50;3.13;;;;;;;;;;2079414;28;20030;-66
2021/10/07 03:33:18;;;;;;;3.28;3.00;;;;;;;;;;2079228;28;20037;-66
2021/10/07 03:34:37;;;;;;;3.28;3.08;;;;;;;;;;2079812;28;20038;-65
2021/10/07 03:35:56;;;;;;;3.63;3.35;;;;;;;;;;2079637;28;20029;-65
2021/10/07 03:37:15;;;;;;;3.70;3.40;;;;;;;;;;2080857;28;20033;-67
2021/10/07 03:38:34;;;;;;;3.55;3.17;;;;;;;;;;2081609;28;20030;-66
2021/10/07 03:39:53;;;;;;;3.67;3.35;;;;;;;;;;2080660;28;20029;-66
2021/10/07 03:41:12;;;;;;;3.22;3.03;;;;;;;;;;2080606;28;20034;-66
2021/10/07 03:42:31;;;;;;;3.38;3.17;;;;;;;;;;2079618;28;20030;-65
2021/10/07 03:43:50;;;;;;;3.33;3.13;;;;;;;;;;2077735;28;20033;-66
2021/10/07 03:45:09;;;;;;;3.42;3.22;;;;;;;;;;2079005;28;20444;-65
2021/10/07 03:46:28;;;;;;;3.60;3.30;;;;;;;;;;2081888;28;21142;-65
2021/10/07 03:47:46;;;;;;;3.53;3.22;;;;;;;;;;2080346;28;20479;-66
2021/10/07 03:49:05;;;;;;;3.33;3.00;;;;;;;;;;2081368;28;20124;-65
2021/10/07 03:50:24;;;;;;;3.63;3.42;;;;;;;;;;2080859;28;20029;-65
2021/10/07 03:51:44;;;;;;;3.70;3.30;;;;;;;;;;2080945;28;20505;-65
2021/10/07 03:53:03;;;;;;;3.30;3.00;;;;;;;;;;2080637;28;20021;-64
2021/10/07 03:54:22;;;;;;;3.05;2.85;;;;;;;;;;2078074;28;20069;-65
2021/10/07 03:55:41;;;;;;;3.92;3.63;;;;;;;;;;2079420;28;20022;-66
2021/10/07 03:56:59;;;;;;;4.45;3.00;;;;;;;;;;2080226;28;20029;-66
2021/10/07 03:58:18;;;;;;;3.45;3.25;;;;;;;;;;2080796;28;20030;-66
2021/10/07 03:59:37;;;;;;;3.20;2.90;;;;;;;;;;2078304;28;20026;-66
2021/10/07 04:00:56;;;;;;;3.50;3.20;;;;;;;;;;2076760;28;20021;-66
2021/10/07 04:02:15;;;;;;;3.33;3.08;;;;;;;;;;2078924;28;20925;-65
2021/10/07 04:03:34;;;;;;;4.97;3.63;;;;;;;;;;2080988;28;20025;-66
2021/10/07 04:04:53;;;;;;;3.25;3.05;;;;;;;;;;2079014;28;20041;-65
2021/10/07 04:06:12;;;;;;;3.88;3.40;;;;;;;;;;2080798;28;20029;-66
2021/10/07 04:07:31;;;;;;;5.07;3.40;;;;;;;;;;2081066;28;20491;-65
2021/10/07 04:08:50;;;;;;;3.40;3.10;;;;;;;;;;2080353;28;20042;-67
2021/10/07 04:10:09;;;;;;;3.35;3.05;;;;;;;;;;2079658;28;20061;-66
2021/10/07 04:11:28;;;;;;;4.15;3.75;;;;;;;;;;2077769;28;20033;-65
2021/10/07 04:12:46;;;;;;;3.20;3.00;;;;;;;;;;2078273;28;20030;-66
2021/10/07 04:14:05;;;;;;;3.00;2.80;;;;;;;;;;2080205;28;20021;-67
2021/10/07 04:15:24;;;;;;;3.85;3.17;;;;;;;;;;2080674;28;20034;-66
2021/10/07 04:16:43;;;;;;;4.00;3.70;;;;;;;;;;2080277;28;20038;-66
2021/10/07 04:18:02;;;;;;;3.42;3.22;;;;;;;;;;2089787;28;20047;-66
2021/10/07 04:19:22;;;;;;;5.30;3.38;;;;;;;;;;2083502;28;20030;-67
2021/10/07 04:20:41;;;;;;;3.50;3.30;;;;;;;;;;2080302;28;20478;-67
2021/10/07 04:22:00;;;;;;;3.38;3.17;;;;;;;;;;2080017;28;20030;-66
2021/10/07 04:23:19;;;;;;;3.53;3.22;;;;;;;;;;2079580;28;20442;-66
2021/10/07 04:24:38;;;;;;;4.25;3.60;;;;;;;;;;2078103;28;21750;-65
2021/10/07 04:25:57;;;;;;;4.28;3.15;;;;;;;;;;2079989;28;20021;-66
2021/10/07 04:27:16;;;;;;;3.60;3.30;;;;;;;;;;2080512;28;20045;-65
2021/10/07 04:28:35;;;;;;;3.88;3.55;;;;;;;;;;2079198;28;20074;-66
2021/10/07 04:29:54;;;;;;;4.32;3.22;;;;;;;;;;2079249;28;20033;-67
2021/10/07 04:31:13;;;;;;;3.78;3.35;;;;;;;;;;2079111;28;20430;-66
2021/10/07 04:32:32;;;;;;;3.95;3.63;;;;;;;;;;2079902;28;20077;-65
2021/10/07 04:33:51;;;;;;;3.50;3.30;;;;;;;;;;2079839;28;20507;-65
2021/10/07 04:35:10;;;;;;;4.65;3.25;;;;;;;;;;2080480;28;20033;-65
2021/10/07 04:36:28;;;;;;;3.83;3.53;;;;;;;;;;2079079;28;20131;-66
2021/10/07 04:37:47;;;;;;;4.25;3.83;;;;;;;;;;2078805;28;20105;-64
2021/10/07 04:39:06;;;;;;;6.22;3.83;;;;;;;;;;2080834;28;20156;-63
2021/10/07 04:40:26;;;;;;;3.83;3.63;;;;;;;;;;2081302;28;20482;-65
2021/10/07 04:41:45;;;;;;;3.90;3.60;;;;;;;;;;2079480;28;20029;-65
2021/10/07 04:43:04;;;;;;;4.03;3.72;;;;;;;;;;2077430;28;20025;-65
2021/10/07 04:44:23;;;;;;;3.83;3.50;;;;;;;;;;2079101;28;20026;-65
2021/10/07 04:45:42;;;;;;;4.80;3.88;;;;;;;;;;2079650;28;20025;-65
2021/10/07 04:47:01;;;;;;;19.38;4.82;;;;;;;;;;2080898;28;20013;-65
2021/10/07 04:48:20;;;;;;;5.95;3.97;;;;;;;;;;2075268;28;20037;-64
2021/10/07 04:49:39;;;;;;;4.10;3.80;;;;;;;;;;2080541;28;20017;-68
2021/10/07 04:50:58;;;;;;;3.72;3.35;;;;;;;;;;2079619;28;20021;-67
2021/10/07 04:52:17;;;;;;;4.20;3.90;;;;;;;;;;2080231;28;20025;-68
2021/10/07 04:53:35;;;;;;;3.92;3.63;;;;;;;;;;2079259;28;20022;-68
2021/10/07 04:54:54;;;;;;;4.32;3.92;;;;;;;;;;2076082;28;20026;-67
2021/10/07 04:56:13;;;;;;;3.90;3.60;;;;;;;;;;2078057;28;20453;-68
2021/10/07 04:57:32;;;;;;;5.80;3.58;;;;;;;;;;2079307;28;20045;-67
2021/10/07 04:58:54;;;;;;;5.75;3.95;;;;;;;;;;2081111;28;20022;-66
2021/10/07 05:00:14;;;;;;;3.47;3.17;;;;;;;;;;2080642;28;20037;-67
2021/10/07 05:01:33;;;;;;;4.25;3.90;;;;;;;;;;2078457;28;20448;-67
2021/10/07 05:02:52;;;;;;;6.60;3.97;;;;;;;;;;2080761;28;20042;-67
2021/10/07 05:04:11;;;;;;;4.28;3.97;;;;;;;;;;2078962;28;20270;-66
2021/10/07 05:05:30;;;;;;;4.45;4.03;;;;;;;;;;2078523;28;20041;-66
2021/10/07 05:06:49;;;;;;;3.60;3.25;;;;;;;;;;2079315;28;20096;-66
2021/10/07 05:08:08;;;;;;;3.83;3.53;;;;;;;;;;2077783;28;20034;-67
2021/10/07 05:09:27;;;;;;;4.45;3.22;;;;;;;;;;2079416;28;20029;-68
2021/10/07 05:10:46;;;;;;;3.83;3.42;;;;;;;;;;2081266;28;20471;-66
2021/10/07 05:12:05;;;;;;;3.92;3.65;;;;;;;;;;2077280;28;20021;-67
2021/10/07 05:13:25;;;;;;;4.05;3.75;;;;;;;;;;2078745;28;20030;-67
2021/10/07 05:14:44;;;;;;;4.18;3.80;;;;;;;;;;2080278;28;20120;-68
2021/10/07 05:16:02;;;;;;;4.00;3.67;;;;;;;;;;2078554;28;20030;-68
2021/10/07 05:17:21;;;;;;;3.58;3.33;;;;;;;;;;2078875;28;20022;-70
2021/10/07 05:18:40;;;;;;;4.03;3.70;;;;;;;;;;2078865;28;20108;-65
2021/10/07 05:19:59;;;;;;;4.43;4.00;;;;;;;;;;2078632;28;20104;-66
2021/10/07 05:21:18;;;;;;;3.58;3.28;;;;;;;;;;2079571;28;20108;-64
2021/10/07 05:22:37;;;;;;;5.10;4.25;;;;;;;;;;2077734;28;20041;-64
2021/10/07 05:23:57;;;;;;;3.95;3.60;;;;;;;;;;2079456;28;20446;-65
2021/10/07 05:25:15;;;;;;;4.38;3.70;;;;;;;;;;2076299;28;20491;-64
2021/10/07 05:26:34;;;;;;;5.35;3.78;;;;;;;;;;2077933;28;20029;-64
2021/10/07 05:27:53;;;;;;;4.05;3.65;;;;;;;;;;2078939;28;20026;-65
2021/10/07 05:29:12;;;;;;;3.90;3.47;;;;;;;;;;2075319;28;20041;-64
2021/10/07 05:30:31;;;;;;;4.20;3.90;;;;;;;;;;2078253;28;20034;-65
2021/10/07 05:31:50;;;;;;;4.15;3.72;;;;;;;;;;2078929;28;20227;-66
2021/10/07 05:33:09;;;;;;;4.65;4.10;;;;;;;;;;2078495;28;20622;-65
2021/10/07 05:34:28;;;;;;;7.07;3.60;;;;;;;;;;2078859;28;20041;-65
2021/10/07 05:35:48;;;;;;;4.82;4.07;;;;;;;;;;2079288;28;20137;-65
2021/10/07 05:37:06;;;;;;;4.68;4.25;;;;;;;;;;2079643;28;20034;-65
2021/10/07 05:38:25;;;;;;;6.07;4.00;;;;;;;;;;2079561;28;20108;-65
2021/10/07 05:39:44;;;;;;;6.07;4.43;;;;;;;;;;2079214;28;20033;-65
2021/10/07 05:41:04;;;;;;;5.72;4.45;;;;;;;;;;2075586;28;20034;-64
2021/10/07 05:42:23;;;;;;;4.47;4.07;;;;;;;;;;2080324;28;20021;-65
2021/10/07 05:43:42;;;;;;;6.38;4.22;;;;;;;;;;2078055;28;20052;-65
2021/10/07 05:45:03;;;;;;;6.95;3.90;;;;;;;;;;2080016;28;20021;-65
2021/10/07 05:46:21;;;;;;;4.57;3.70;;;;;;;;;;2080590;28;20061;-66
2021/10/07 05:47:41;;;;;;;4.50;3.72;;;;;;;;;;2078841;28;20497;-65
2021/10/07 05:49:00;;;;;;;4.30;3.60;;;;;;;;;;2078615;28;20037;-66
2021/10/07 05:50:19;;;;;;;6.18;4.07;;;;;;;;;;2077912;28;20112;-66
2021/10/07 05:51:38;;;;;;;4.78;4.00;;;;;;;;;;2076912;28;20128;-65
2021/10/07 05:52:57;;;;;;;3.83;3.53;;;;;;;;;;2080156;28;20025;-65
2021/10/07 05:54:17;;;;;;;3.97;3.63;;;;;;;;;;2080262;28;20700;-65
2021/10/07 05:55:35;;;;;;;4.13;3.70;;;;;;;;;;2079380;28;20037;-65
2021/10/07 05:56:54;;;;;;;4.07;3.72;;;;;;;;;;2081423;28;20025;-64
2021/10/07 05:58:13;;;;;;;4.38;4.03;;;;;;;;;;2079779;28;20037;-65
2021/10/07 05:59:32;;;;;;;4.63;3.85;;;;;;;;;;2074577;28;20038;-65
2021/10/07 06:00:51;;;;;;;4.00;3.70;;;;;;;;;;2077047;28;20240;-65
2021/10/07 06:02:10;;;;;;;4.13;3.80;;;;;;;;;;2080566;28;20475;-66
2021/10/07 06:03:29;;;;;;;4.30;3.88;;;;;;;;;;2079429;28;20120;-65
2021/10/07 06:04:48;;;;;;;3.92;3.63;;;;;;;;;;2077321;28;20157;-65
2021/10/07 06:06:07;;;;;;;4.63;4.22;;;;;;;;;;2078806;28;20037;-64
2021/10/07 06:07:26;;;;;;;7.18;3.90;;;;;;;;;;2077203;28;20033;-65
2021/10/07 06:08:46;;;;;;;4.40;4.10;;;;;;;;;;2075357;28;20037;-65
2021/10/07 06:10:06;;;;;;;7.38;4.30;;;;;;;;;;2080923;28;20033;-65
2021/10/07 06:11:25;;;;;;;6.25;3.60;;;;;;;;;;2080635;28;20510;-64
2021/10/07 06:12:44;;;;;;;4.57;4.05;;;;;;;;;;2080168;28;20045;-65
2021/10/07 06:14:04;;;;;;;6.40;4.00;;;;;;;;;;2080215;28;20033;-66
2021/10/07 06:15:26;;;;;;;5.75;4.07;;;;;;;;;;2082434;28;20034;-66
2021/10/07 06:16:46;;;;;;;4.35;3.97;;;;;;;;;;2081437;28;20037;-65
2021/10/07 06:18:05;;;;;;;3.70;3.35;;;;;;;;;;2080713;28;20025;-66
2021/10/07 06:19:26;;;;;;;5.05;3.58;;;;;;;;;;2080487;28;20033;-67
2021/10/07 06:20:45;;;;;;;5.47;3.95;;;;;;;;;;2079118;28;20029;-66
2021/10/07 06:22:04;;;;;;;4.72;4.05;;;;;;;;;;2079952;28;20037;-66
2021/10/07 06:23:22;;;;;;;5.35;3.83;;;;;;;;;;2080151;28;20038;-65
2021/10/07 06:24:41;;;;;;;4.63;4.10;;;;;;;;;;2079473;28;20030;-65
2021/10/07 06:26:00;;;;;;;4.68;3.47;;;;;;;;;;2080540;28;20029;-65
2021/10/07 06:27:19;;;;;;;4.95;4.47;;;;;;;;;;2079334;28;20041;-63
2021/10/07 06:28:38;;;;;;;4.20;3.80;;;;;;;;;;2079095;28;20403;-64
2021/10/07 06:29:57;;;;;;;5.00;3.75;;;;;;;;;;2079945;28;20387;-65
2021/10/07 06:31:16;;;;;;;3.88;3.58;;;;;;;;;;2076299;28;20030;-65
2021/10/07 06:32:35;;;;;;;3.97;3.67;;;;;;;;;;2080859;28;20037;-64
2021/10/07 06:33:54;;;;;;;5.13;3.80;;;;;;;;;;2078581;28;20029;-64
2021/10/07 06:35:13;;;;;;;4.47;4.07;;;;;;;;;;2079879;28;20029;-64
2021/10/07 06:36:32;;;;;;;6.22;3.47;;;;;;;;;;2079833;28;20034;-65
2021/10/07 06:37:51;;;;;;;5.25;4.18;;;;;;;;;;2079351;28;20128;-64
2021/10/07 06:39:10;;;;;;;4.97;4.25;;;;;;;;;;2079371;28;20022;-65
2021/10/07 06:40:30;;;;;;;6.28;4.40;;;;;;;;;;2077656;28;20574;-65
2021/10/07 06:41:49;;;;;;;4.43;4.00;;;;;;;;;;2079677;28;20033;-64
2021/10/07 06:43:08;;;;;;;4.68;4.38;;;;;;;;;;2076945;28;20491;-65
2021/10/07 06:44:27;;;;;;;5.00;4.32;;;;;;;;;;2079218;28;20491;-65
2021/10/07 06:45:46;;;;;;;4.00;3.80;;;;;;;;;;2079939;28;20104;-64
2021/10/07 06:47:05;;;;;;;8.35;4.40;;;;;;;;;;2080053;28;20442;-65
2021/10/07 06:48:24;;;;;;;4.57;4.18;;;;;;;;;;2078963;28;20514;-64
2021/10/07 06:49:43;;;;;;;5.18;4.32;;;;;;;;;;2079063;28;20064;-65
2021/10/07 06:51:02;;;;;;;5.03;4.63;;;;;;;;;;2079823;28;20037;-65
2021/10/07 06:52:21;;;;;;;5.22;4.70;;;;;;;;;;2078698;28;20042;-65
2021/10/07 06:53:41;;;;;;;5.60;5.15;;;;;;;;;;2077746;28;20033;-65
2021/10/07 06:55:01;;;;;;;5.85;5.00;;;;;;;;;;2078378;28;20029;-66
2021/10/07 06:56:20;;;;;;;5.10;4.70;;;;;;;;;;2078959;28;20046;-65
2021/10/07 06:57:40;;;;;;;6.32;4.70;;;;;;;;;;2079695;28;20427;-64
2021/10/07 06:58:59;;;;;;;5.57;4.55;;;;;;;;;;2076947;28;20038;-65
2021/10/07 07:00:18;;;;;;;7.95;5.00;;;;;;;;;;2076317;28;20029;-65
2021/10/07 07:01:37;;;;;;;5.07;4.78;;;;;;;;;;2077204;28;20038;-65
2021/10/07 07:02:58;;;;;;;5.05;4.65;;;;;;;;;;2077424;28;20049;-65
2021/10/07 07:04:17;;;;;;;4.32;4.03;;;;;;;;;;2075223;28;20026;-63
2021/10/07 07:05:36;;;;;;;4.90;4.60;;;;;;;;;;2076854;28;20056;-63
2021/10/07 07:06:55;;;;;;;4.95;4.50;;;;;;;;;;2083501;28;20131;-66
2021/10/07 07:08:14;;;;;;;5.35;4.93;;;;;;;;;;2079792;28;20068;-64
2021/10/07 07:09:33;;;;;;;5.13;4.47;;;;;;;;;;2074748;28;20041;-63
2021/10/07 07:10:53;;;;;;;5.55;4.88;;;;;;;;;;2075921;28;20874;-64
2021/10/07 07:12:12;;;;;;;5.72;4.82;;;;;;;;;;2076254;28;20100;-64
2021/10/07 07:13:31;;;;;;;5.55;4.82;;;;;;;;;;2075279;28;20120;-63
2021/10/07 07:14:50;;;;;;;5.55;4.60;;;;;;;;;;2077464;28;20403;-66
2021/10/07 07:16:10;;;;;;;4.80;4.40;;;;;;;;;;2075300;28;20399;-64
2021/10/07 07:17:29;;;;;;;5.93;4.57;;;;;;;;;;2074779;28;20067;-65
2021/10/07 07:18:48;;;;;;;5.68;4.32;;;;;;;;;;2077198;28;20030;-64
2021/10/07 07:20:07;;;;;;;5.00;4.60;;;;;;;;;;2078497;28;20033;-64
2021/10/07 07:21:29;;;;;;;4.90;4.35;;;;;;;;;;2076238;28;20040;-64
2021/10/07 07:22:48;;;;;;;4.72;4.25;;;;;;;;;;2075275;28;20061;-65
2021/10/07 07:24:07;;;;;;;4.57;4.20;;;;;;;;;;2080256;28;20025;-65
2021/10/07 07:25:26;;;;;;;7.03;4.47;;;;;;;;;;2078049;28;20034;-64
2021/10/07 07:26:45;;;;;;;4.65;4.10;;;;;;;;;;2078551;28;20037;-64
2021/10/07 07:28:04;;;;;;;7.07;4.70;;;;;;;;;;2079133;28;20034;-64
2021/10/07 07:29:23;;;;;;;4.72;4.43;;;;;;;;;;2077466;28;20112;-64
2021/10/07 07:30:42;;;;;;;5.65;4.63;;;;;;;;;;2079155;28;20490;-64
2021/10/07 07:32:01;;;;;;;5.05;4.55;;;;;;;;;;2077483;28;20029;-63
2021/10/07 07:33:24;;;;;;;9.15;4.30;;;;;;;;;;2076938;28;20030;-63
2021/10/07 07:34:43;;;;;;;6.55;4.68;;;;;;;;;;2079266;28;20025;-64
2021/10/07 07:36:02;;;;;;;4.45;4.15;;;;;;;;;;2077212;28;20041;-64
2021/10/07 07:37:22;;;;;;;6.50;4.20;;;;;;;;;;2077237;28;20029;-63
2021/10/07 07:38:41;;;;;;;6.65;5.10;;;;;;;;;;2078383;28;20482;-65
2021/10/07 07:40:00;;;;;;;7.03;4.72;;;;;;;;;;2076341;28;20108;-64
2021/10/07 07:41:19;;;;;;;6.00;5.00;;;;;;;;;;2078682;28;20030;-65
2021/10/07 07:42:38;;;;;;;5.03;4.30;;;;;;;;;;2077705;28;20026;-64
2021/10/07 07:43:57;;;;;;;5.50;4.13;;;;;;;;;;2076419;28;20033;-64
2021/10/07 07:45:16;;;;;;;4.60;4.30;;;;;;;;;;2077122;28;20021;-65
2021/10/07 07:46:35;;;;;;;4.55;4.25;;;;;;;;;;2077733;28;20029;-64
2021/10/07 07:47:54;;;;;;;6.72;5.05;;;;;;;;;;2076879;28;20026;-64
2021/10/07 07:49:13;;;;;;;4.20;3.90;;;;;;;;;;2077294;28;20030;-64
2021/10/07 07:50:32;;;;;;;7.40;4.47;;;;;;;;;;2078031;28;20041;-64
2021/10/07 07:51:51;;;;;;;4.78;4.15;;;;;;;;;;2079080;28;20037;-64
2021/10/07 07:53:13;;;;;;;7.25;4.03;;;;;;;;;;2076314;28;20025;-64
2021/10/07 07:54:31;;;;;;;4.80;4.32;;;;;;;;;;2079291;28;20018;-64
2021/10/07 07:55:50;;;;;;;4.70;4.40;;;;;;;;;;2078608;28;20037;-64
2021/10/07 07:57:09;;;;;;;4.32;3.95;;;;;;;;;;2078776;28;20049;-64
2021/10/07 07:58:28;;;;;;;6.18;4.45;;;;;;;;;;2076085;28;20029;-64
2021/10/07 07:59:47;;;;;;;3.92;3.63;;;;;;;;;;2076823;28;20134;-64